sensor_id;sensor_type;location;lat;lon;timestamp;P1;durP1;ratioP1;P2;durP2;ratioP2
69769;SDS011;57282;52.514;13.458;2023-02-28T00:00:51;11.15;;;5.53;;
69769;SDS011;57282;52.514;13.458;2023-02-28T00:03:18;11.30;;;5.75;;
69769;SDS011;57282;52.514;13.458;2023-02-28T00:05:44;15.80;;;5.03;;
69769;SDS011;57282;52.514;13.458;2023-02-28T00:08:12;9.63;;;4.30;;
69769;SDS011;57282;52.514;13.458;2023-02-28T00:10:39;10.77;;;4.00;;
69769;SDS011;57282;52.514;13.458;2023-02-28T00:13:06;9.00;;;3.28;;
69769;SDS011;57282;52.514;13.458;2023-02-28T00:15:33;8.13;;;2.45;;
69769;SDS011;57282;52.514;13.458;2023-02-28T00:18:00;5.75;;;2.22;;
69769;SDS011;57282;52.514;13.458;2023-02-28T00:20:27;14.07;;;2.50;;
69769;SDS011;57282;52.514;13.458;2023-02-28T00:22:53;10.45;;;3.20;;
69769;SDS011;57282;52.514;13.458;2023-02-28T00:25:22;8.35;;;2.55;;
69769;SDS011;57282;52.514;13.458;2023-02-28T00:27:49;9.80;;;3.30;;
69769;SDS011;57282;52.514;13.458;2023-02-28T00:30:17;10.68;;;3.47;;
69769;SDS011;57282;52.514;13.458;2023-02-28T00:32:44;7.87;;;3.03;;
69769;SDS011;57282;52.514;13.458;2023-02-28T00:35:10;14.38;;;3.58;;
69769;SDS011;57282;52.514;13.458;2023-02-28T00:37:37;7.60;;;2.90;;
69769;SDS011;57282;52.514;13.458;2023-02-28T00:40:04;8.43;;;3.30;;
69769;SDS011;57282;52.514;13.458;2023-02-28T00:42:33;9.35;;;2.95;;
69769;SDS011;57282;52.514;13.458;2023-02-28T00:45:00;8.67;;;3.00;;
69769;SDS011;57282;52.514;13.458;2023-02-28T00:47:28;11.85;;;4.28;;
69769;SDS011;57282;52.514;13.458;2023-02-28T00:49:55;7.65;;;3.33;;
69769;SDS011;57282;52.514;13.458;2023-02-28T00:52:21;8.02;;;3.38;;
69769;SDS011;57282;52.514;13.458;2023-02-28T00:54:48;9.60;;;3.88;;
69769;SDS011;57282;52.514;13.458;2023-02-28T00:57:15;9.43;;;4.13;;
69769;SDS011;57282;52.514;13.458;2023-02-28T00:59:43;8.05;;;3.53;;
69769;SDS011;57282;52.514;13.458;2023-02-28T01:02:09;11.10;;;3.47;;
69769;SDS011;57282;52.514;13.458;2023-02-28T01:04:36;8.05;;;3.05;;
69769;SDS011;57282;52.514;13.458;2023-02-28T01:07:02;8.07;;;3.50;;
69769;SDS011;57282;52.514;13.458;2023-02-28T01:09:29;10.33;;;3.83;;
69769;SDS011;57282;52.514;13.458;2023-02-28T01:11:55;11.68;;;3.55;;
69769;SDS011;57282;52.514;13.458;2023-02-28T01:14:22;9.63;;;3.67;;
69769;SDS011;57282;52.514;13.458;2023-02-28T01:16:50;9.05;;;3.70;;
69769;SDS011;57282;52.514;13.458;2023-02-28T01:19:17;9.10;;;3.67;;
69769;SDS011;57282;52.514;13.458;2023-02-28T01:21:43;8.40;;;3.50;;
69769;SDS011;57282;52.514;13.458;2023-02-28T01:24:10;12.63;;;4.28;;
69769;SDS011;57282;52.514;13.458;2023-02-28T01:26:36;9.43;;;3.78;;
69769;SDS011;57282;52.514;13.458;2023-02-28T01:29:03;11.85;;;4.50;;
69769;SDS011;57282;52.514;13.458;2023-02-28T01:31:29;8.77;;;4.00;;
69769;SDS011;57282;52.514;13.458;2023-02-28T01:33:57;9.70;;;4.10;;
69769;SDS011;57282;52.514;13.458;2023-02-28T01:36:24;9.07;;;4.35;;
69769;SDS011;57282;52.514;13.458;2023-02-28T01:38:51;8.98;;;3.47;;
69769;SDS011;57282;52.514;13.458;2023-02-28T01:41:18;9.27;;;3.78;;
69769;SDS011;57282;52.514;13.458;2023-02-28T01:43:55;10.82;;;4.28;;
69769;SDS011;57282;52.514;13.458;2023-02-28T01:46:22;9.67;;;3.20;;
69769;SDS011;57282;52.514;13.458;2023-02-28T01:48:50;8.85;;;3.38;;
69769;SDS011;57282;52.514;13.458;2023-02-28T01:51:20;8.75;;;3.28;;
69769;SDS011;57282;52.514;13.458;2023-02-28T01:53:49;11.60;;;4.20;;
69769;SDS011;57282;52.514;13.458;2023-02-28T01:56:17;9.63;;;3.70;;
69769;SDS011;57282;52.514;13.458;2023-02-28T01:58:46;9.27;;;3.90;;
69769;SDS011;57282;52.514;13.458;2023-02-28T02:01:13;8.77;;;3.97;;
69769;SDS011;57282;52.514;13.458;2023-02-28T02:03:46;11.77;;;3.80;;
69769;SDS011;57282;52.514;13.458;2023-02-28T02:06:13;9.23;;;4.32;;
69769;SDS011;57282;52.514;13.458;2023-02-28T02:08:40;8.90;;;4.13;;
69769;SDS011;57282;52.514;13.458;2023-02-28T02:11:07;8.80;;;3.93;;
69769;SDS011;57282;52.514;13.458;2023-02-28T02:13:39;8.20;;;3.55;;
69769;SDS011;57282;52.514;13.458;2023-02-28T02:16:13;9.85;;;4.18;;
69769;SDS011;57282;52.514;13.458;2023-02-28T02:18:46;9.75;;;3.95;;
69769;SDS011;57282;52.514;13.458;2023-02-28T02:27:17;9.60;;;4.18;;
69769;SDS011;57282;52.514;13.458;2023-02-28T02:29:47;9.57;;;3.85;;
69769;SDS011;57282;52.514;13.458;2023-02-28T02:32:28;9.85;;;3.60;;
69769;SDS011;57282;52.514;13.458;2023-02-28T02:35:02;7.95;;;3.65;;
69769;SDS011;57282;52.514;13.458;2023-02-28T02:37:35;9.77;;;3.70;;
69769;SDS011;57282;52.514;13.458;2023-02-28T02:40:04;9.65;;;3.97;;
69769;SDS011;57282;52.514;13.458;2023-02-28T02:42:36;9.70;;;3.90;;
69769;SDS011;57282;52.514;13.458;2023-02-28T02:45:06;10.23;;;3.90;;
69769;SDS011;57282;52.514;13.458;2023-02-28T02:47:34;10.02;;;4.32;;
69769;SDS011;57282;52.514;13.458;2023-02-28T02:50:04;10.60;;;4.43;;
69769;SDS011;57282;52.514;13.458;2023-02-28T02:52:32;9.25;;;3.50;;
69769;SDS011;57282;52.514;13.458;2023-02-28T02:55:00;9.23;;;3.55;;
69769;SDS011;57282;52.514;13.458;2023-02-28T02:57:30;8.38;;;3.50;;
69769;SDS011;57282;52.514;13.458;2023-02-28T02:59:59;11.35;;;3.80;;
69769;SDS011;57282;52.514;13.458;2023-02-28T03:02:26;9.07;;;4.20;;
69769;SDS011;57282;52.514;13.458;2023-02-28T03:04:59;11.43;;;4.35;;
69769;SDS011;57282;52.514;13.458;2023-02-28T03:07:28;10.85;;;3.75;;
69769;SDS011;57282;52.514;13.458;2023-02-28T03:09:55;7.90;;;3.80;;
69769;SDS011;57282;52.514;13.458;2023-02-28T03:12:23;8.90;;;4.00;;
69769;SDS011;57282;52.514;13.458;2023-02-28T03:14:55;8.47;;;3.77;;
69769;SDS011;57282;52.514;13.458;2023-02-28T03:17:27;9.02;;;3.72;;
69769;SDS011;57282;52.514;13.458;2023-02-28T03:20:01;8.68;;;3.85;;
69769;SDS011;57282;52.514;13.458;2023-02-28T03:22:36;8.07;;;3.72;;
69769;SDS011;57282;52.514;13.458;2023-02-28T03:25:07;9.85;;;3.90;;
69769;SDS011;57282;52.514;13.458;2023-02-28T03:27:35;9.23;;;3.73;;
69769;SDS011;57282;52.514;13.458;2023-02-28T03:30:04;9.30;;;3.45;;
69769;SDS011;57282;52.514;13.458;2023-02-28T03:32:33;8.38;;;4.00;;
69769;SDS011;57282;52.514;13.458;2023-02-28T03:35:02;8.73;;;3.65;;
69769;SDS011;57282;52.514;13.458;2023-02-28T03:37:32;9.07;;;3.38;;
69769;SDS011;57282;52.514;13.458;2023-02-28T03:40:04;9.43;;;3.90;;
69769;SDS011;57282;52.514;13.458;2023-02-28T03:42:33;10.00;;;4.28;;
69769;SDS011;57282;52.514;13.458;2023-02-28T03:45:02;8.15;;;3.40;;
69769;SDS011;57282;52.514;13.458;2023-02-28T03:47:33;8.65;;;3.55;;
69769;SDS011;57282;52.514;13.458;2023-02-28T03:50:05;9.20;;;3.80;;
69769;SDS011;57282;52.514;13.458;2023-02-28T03:52:33;7.70;;;3.47;;
69769;SDS011;57282;52.514;13.458;2023-02-28T03:55:03;7.53;;;2.70;;
69769;SDS011;57282;52.514;13.458;2023-02-28T03:57:33;7.72;;;3.50;;
69769;SDS011;57282;52.514;13.458;2023-02-28T04:00:02;9.25;;;3.58;;
69769;SDS011;57282;52.514;13.458;2023-02-28T04:02:30;7.72;;;3.60;;
69769;SDS011;57282;52.514;13.458;2023-02-28T04:04:57;9.53;;;4.33;;
69769;SDS011;57282;52.514;13.458;2023-02-28T04:07:24;8.05;;;3.83;;
69769;SDS011;57282;52.514;13.458;2023-02-28T04:09:51;8.45;;;3.53;;
69769;SDS011;57282;52.514;13.458;2023-02-28T04:12:19;10.35;;;3.97;;
69769;SDS011;57282;52.514;13.458;2023-02-28T04:14:48;8.48;;;4.20;;
69769;SDS011;57282;52.514;13.458;2023-02-28T04:17:14;8.60;;;4.23;;
69769;SDS011;57282;52.514;13.458;2023-02-28T04:19:41;9.38;;;4.05;;
69769;SDS011;57282;52.514;13.458;2023-02-28T04:22:08;9.10;;;3.30;;
69769;SDS011;57282;52.514;13.458;2023-02-28T04:24:35;9.18;;;3.75;;
69769;SDS011;57282;52.514;13.458;2023-02-28T04:27:01;8.93;;;4.15;;
69769;SDS011;57282;52.514;13.458;2023-02-28T04:29:30;8.03;;;3.60;;
69769;SDS011;57282;52.514;13.458;2023-02-28T04:31:57;8.65;;;3.25;;
69769;SDS011;57282;52.514;13.458;2023-02-28T04:34:24;9.80;;;3.72;;
69769;SDS011;57282;52.514;13.458;2023-02-28T04:36:51;7.88;;;3.67;;
69769;SDS011;57282;52.514;13.458;2023-02-28T04:39:19;10.52;;;3.70;;
69769;SDS011;57282;52.514;13.458;2023-02-28T04:41:46;9.27;;;4.50;;
69769;SDS011;57282;52.514;13.458;2023-02-28T04:44:13;9.45;;;3.90;;
69769;SDS011;57282;52.514;13.458;2023-02-28T04:46:41;11.07;;;4.05;;
69769;SDS011;57282;52.514;13.458;2023-02-28T04:49:07;8.70;;;3.88;;
69769;SDS011;57282;52.514;13.458;2023-02-28T04:51:34;8.90;;;4.00;;
69769;SDS011;57282;52.514;13.458;2023-02-28T04:54:01;9.70;;;4.40;;
69769;SDS011;57282;52.514;13.458;2023-02-28T04:56:27;10.95;;;3.92;;
69769;SDS011;57282;52.514;13.458;2023-02-28T04:58:53;9.38;;;3.78;;
69769;SDS011;57282;52.514;13.458;2023-02-28T05:01:21;8.68;;;3.88;;
69769;SDS011;57282;52.514;13.458;2023-02-28T05:03:50;9.25;;;4.10;;
69769;SDS011;57282;52.514;13.458;2023-02-28T05:06:17;9.73;;;3.80;;
69769;SDS011;57282;52.514;13.458;2023-02-28T05:08:44;8.63;;;4.07;;
69769;SDS011;57282;52.514;13.458;2023-02-28T05:11:13;11.93;;;3.90;;
69769;SDS011;57282;52.514;13.458;2023-02-28T05:13:40;8.45;;;3.72;;
69769;SDS011;57282;52.514;13.458;2023-02-28T05:16:06;7.35;;;3.47;;
69769;SDS011;57282;52.514;13.458;2023-02-28T05:18:33;10.50;;;4.13;;
69769;SDS011;57282;52.514;13.458;2023-02-28T05:21:01;8.43;;;3.72;;
69769;SDS011;57282;52.514;13.458;2023-02-28T05:23:28;7.68;;;3.45;;
69769;SDS011;57282;52.514;13.458;2023-02-28T05:25:54;8.80;;;3.90;;
69769;SDS011;57282;52.514;13.458;2023-02-28T05:28:21;7.93;;;3.53;;
69769;SDS011;57282;52.514;13.458;2023-02-28T05:30:47;9.77;;;4.30;;
69769;SDS011;57282;52.514;13.458;2023-02-28T05:33:14;9.35;;;4.07;;
69769;SDS011;57282;52.514;13.458;2023-02-28T05:35:41;9.38;;;3.78;;
69769;SDS011;57282;52.514;13.458;2023-02-28T05:38:09;8.50;;;4.15;;
69769;SDS011;57282;52.514;13.458;2023-02-28T05:40:37;8.65;;;4.03;;
69769;SDS011;57282;52.514;13.458;2023-02-28T05:43:04;9.40;;;3.87;;
69769;SDS011;57282;52.514;13.458;2023-02-28T05:45:30;8.10;;;3.70;;
69769;SDS011;57282;52.514;13.458;2023-02-28T05:47:57;9.23;;;4.13;;
69769;SDS011;57282;52.514;13.458;2023-02-28T05:50:23;9.90;;;4.30;;
69769;SDS011;57282;52.514;13.458;2023-02-28T05:52:50;9.45;;;3.65;;
69769;SDS011;57282;52.514;13.458;2023-02-28T05:55:18;9.73;;;3.30;;
69769;SDS011;57282;52.514;13.458;2023-02-28T05:57:45;7.95;;;3.67;;
69769;SDS011;57282;52.514;13.458;2023-02-28T06:00:11;8.80;;;4.35;;
69769;SDS011;57282;52.514;13.458;2023-02-28T06:02:40;8.43;;;3.92;;
69769;SDS011;57282;52.514;13.458;2023-02-28T06:05:07;9.95;;;4.00;;
69769;SDS011;57282;52.514;13.458;2023-02-28T06:07:35;8.53;;;3.60;;
69769;SDS011;57282;52.514;13.458;2023-02-28T06:10:01;9.48;;;4.10;;
69769;SDS011;57282;52.514;13.458;2023-02-28T06:12:29;9.02;;;3.95;;
69769;SDS011;57282;52.514;13.458;2023-02-28T06:14:56;10.13;;;4.10;;
69769;SDS011;57282;52.514;13.458;2023-02-28T06:17:22;9.32;;;4.07;;
69769;SDS011;57282;52.514;13.458;2023-02-28T06:19:49;10.90;;;4.10;;
69769;SDS011;57282;52.514;13.458;2023-02-28T06:22:15;10.02;;;4.07;;
69769;SDS011;57282;52.514;13.458;2023-02-28T06:24:42;13.77;;;4.40;;
69769;SDS011;57282;52.514;13.458;2023-02-28T06:27:08;10.93;;;4.10;;
69769;SDS011;57282;52.514;13.458;2023-02-28T06:29:36;9.32;;;3.65;;
69769;SDS011;57282;52.514;13.458;2023-02-28T06:32:05;9.43;;;3.77;;
69769;SDS011;57282;52.514;13.458;2023-02-28T06:34:31;7.90;;;3.78;;
69769;SDS011;57282;52.514;13.458;2023-02-28T06:36:59;9.60;;;4.35;;
69769;SDS011;57282;52.514;13.458;2023-02-28T06:39:27;8.13;;;4.03;;
69769;SDS011;57282;52.514;13.458;2023-02-28T06:41:54;9.38;;;4.10;;
69769;SDS011;57282;52.514;13.458;2023-02-28T06:44:20;9.30;;;3.87;;
69769;SDS011;57282;52.514;13.458;2023-02-28T06:46:48;8.20;;;3.60;;
69769;SDS011;57282;52.514;13.458;2023-02-28T06:49:15;9.18;;;3.55;;
69769;SDS011;57282;52.514;13.458;2023-02-28T06:51:43;10.25;;;3.80;;
69769;SDS011;57282;52.514;13.458;2023-02-28T06:54:10;9.63;;;4.40;;
69769;SDS011;57282;52.514;13.458;2023-02-28T06:56:37;11.00;;;4.17;;
69769;SDS011;57282;52.514;13.458;2023-02-28T06:59:03;15.68;;;5.80;;
69769;SDS011;57282;52.514;13.458;2023-02-28T07:01:30;16.13;;;6.93;;
69769;SDS011;57282;52.514;13.458;2023-02-28T07:03:59;15.20;;;6.50;;
69769;SDS011;57282;52.514;13.458;2023-02-28T07:06:26;22.40;;;5.93;;
69769;SDS011;57282;52.514;13.458;2023-02-28T07:08:53;19.30;;;4.77;;
69769;SDS011;57282;52.514;13.458;2023-02-28T07:11:20;15.32;;;4.97;;
69769;SDS011;57282;52.514;13.458;2023-02-28T07:13:47;17.42;;;5.28;;
69769;SDS011;57282;52.514;13.458;2023-02-28T07:16:13;16.45;;;5.28;;
69769;SDS011;57282;52.514;13.458;2023-02-28T07:18:40;21.73;;;6.35;;
69769;SDS011;57282;52.514;13.458;2023-02-28T07:21:08;21.77;;;6.50;;
69769;SDS011;57282;52.514;13.458;2023-02-28T07:23:35;17.00;;;5.40;;
69769;SDS011;57282;52.514;13.458;2023-02-28T07:26:03;17.25;;;5.03;;
69769;SDS011;57282;52.514;13.458;2023-02-28T07:28:30;16.13;;;5.93;;
69769;SDS011;57282;52.514;13.458;2023-02-28T07:30:56;32.30;;;5.72;;
69769;SDS011;57282;52.514;13.458;2023-02-28T07:33:23;20.27;;;6.47;;
69769;SDS011;57282;52.514;13.458;2023-02-28T07:35:50;21.70;;;6.05;;
69769;SDS011;57282;52.514;13.458;2023-02-28T07:38:17;18.15;;;5.05;;
69769;SDS011;57282;52.514;13.458;2023-02-28T07:40:44;17.40;;;6.15;;
69769;SDS011;57282;52.514;13.458;2023-02-28T07:43:10;18.55;;;5.70;;
69769;SDS011;57282;52.514;13.458;2023-02-28T07:45:37;15.83;;;5.67;;
69769;SDS011;57282;52.514;13.458;2023-02-28T07:48:03;22.20;;;6.18;;
69769;SDS011;57282;52.514;13.458;2023-02-28T07:50:30;18.10;;;6.40;;
69769;SDS011;57282;52.514;13.458;2023-02-28T07:52:57;16.70;;;6.10;;
69769;SDS011;57282;52.514;13.458;2023-02-28T07:55:25;19.85;;;7.03;;
69769;SDS011;57282;52.514;13.458;2023-02-28T07:57:51;19.30;;;6.03;;
69769;SDS011;57282;52.514;13.458;2023-02-28T08:00:18;29.52;;;6.72;;
69769;SDS011;57282;52.514;13.458;2023-02-28T08:02:44;20.70;;;6.47;;
69769;SDS011;57282;52.514;13.458;2023-02-28T08:05:11;19.52;;;6.47;;
69769;SDS011;57282;52.514;13.458;2023-02-28T08:07:37;17.23;;;6.68;;
69769;SDS011;57282;52.514;13.458;2023-02-28T08:10:04;15.07;;;6.30;;
69769;SDS011;57282;52.514;13.458;2023-02-28T08:12:33;18.73;;;5.90;;
69769;SDS011;57282;52.514;13.458;2023-02-28T08:14:59;19.13;;;6.82;;
69769;SDS011;57282;52.514;13.458;2023-02-28T08:17:26;20.83;;;6.55;;
69769;SDS011;57282;52.514;13.458;2023-02-28T08:19:52;20.88;;;6.50;;
69769;SDS011;57282;52.514;13.458;2023-02-28T08:22:19;27.80;;;7.53;;
69769;SDS011;57282;52.514;13.458;2023-02-28T08:24:45;22.55;;;7.88;;
69769;SDS011;57282;52.514;13.458;2023-02-28T08:27:12;18.83;;;6.70;;
69769;SDS011;57282;52.514;13.458;2023-02-28T08:29:40;19.63;;;6.53;;
69769;SDS011;57282;52.514;13.458;2023-02-28T08:32:06;19.42;;;6.43;;
69769;SDS011;57282;52.514;13.458;2023-02-28T08:34:33;21.67;;;6.57;;
69769;SDS011;57282;52.514;13.458;2023-02-28T08:36:59;19.10;;;7.63;;
69769;SDS011;57282;52.514;13.458;2023-02-28T08:39:26;19.20;;;7.55;;
69769;SDS011;57282;52.514;13.458;2023-02-28T08:41:52;20.02;;;7.65;;
69769;SDS011;57282;52.514;13.458;2023-02-28T08:44:19;22.23;;;8.02;;
69769;SDS011;57282;52.514;13.458;2023-02-28T08:46:47;20.07;;;7.80;;
69769;SDS011;57282;52.514;13.458;2023-02-28T08:49:13;21.33;;;8.10;;
69769;SDS011;57282;52.514;13.458;2023-02-28T08:51:40;21.27;;;8.02;;
69769;SDS011;57282;52.514;13.458;2023-02-28T08:54:07;20.80;;;8.18;;
69769;SDS011;57282;52.514;13.458;2023-02-28T08:56:34;24.20;;;7.55;;
69769;SDS011;57282;52.514;13.458;2023-02-28T08:59:01;20.87;;;8.90;;
69769;SDS011;57282;52.514;13.458;2023-02-28T09:01:28;20.08;;;8.07;;
69769;SDS011;57282;52.514;13.458;2023-02-28T09:03:56;20.40;;;7.70;;
69769;SDS011;57282;52.514;13.458;2023-02-28T09:06:23;22.67;;;8.60;;
69769;SDS011;57282;52.514;13.458;2023-02-28T09:08:50;21.67;;;8.45;;
69769;SDS011;57282;52.514;13.458;2023-02-28T09:11:17;22.07;;;9.27;;
69769;SDS011;57282;52.514;13.458;2023-02-28T09:13:44;20.58;;;7.95;;
69769;SDS011;57282;52.514;13.458;2023-02-28T09:16:12;23.25;;;8.77;;
69769;SDS011;57282;52.514;13.458;2023-02-28T09:18:39;22.10;;;8.70;;
69769;SDS011;57282;52.514;13.458;2023-02-28T09:21:07;25.00;;;9.02;;
69769;SDS011;57282;52.514;13.458;2023-02-28T09:23:34;19.27;;;8.43;;
69769;SDS011;57282;52.514;13.458;2023-02-28T09:26:03;22.30;;;8.57;;
69769;SDS011;57282;52.514;13.458;2023-02-28T09:28:30;20.52;;;9.10;;
69769;SDS011;57282;52.514;13.458;2023-02-28T09:30:56;21.50;;;9.43;;
69769;SDS011;57282;52.514;13.458;2023-02-28T09:33:24;22.05;;;9.10;;
69769;SDS011;57282;52.514;13.458;2023-02-28T09:35:57;21.80;;;9.10;;
69769;SDS011;57282;52.514;13.458;2023-02-28T09:38:25;21.30;;;8.90;;
69769;SDS011;57282;52.514;13.458;2023-02-28T09:40:54;25.30;;;10.65;;
69769;SDS011;57282;52.514;13.458;2023-02-28T09:43:21;19.85;;;9.07;;
69769;SDS011;57282;52.514;13.458;2023-02-28T09:45:49;18.35;;;8.60;;
69769;SDS011;57282;52.514;13.458;2023-02-28T09:48:19;19.93;;;9.07;;
69769;SDS011;57282;52.514;13.458;2023-02-28T09:50:48;21.88;;;9.50;;
69769;SDS011;57282;52.514;13.458;2023-02-28T09:53:18;24.25;;;9.38;;
69769;SDS011;57282;52.514;13.458;2023-02-28T09:55:48;22.38;;;10.10;;
69769;SDS011;57282;52.514;13.458;2023-02-28T09:58:18;21.60;;;10.13;;
69769;SDS011;57282;52.514;13.458;2023-02-28T10:00:46;23.03;;;10.50;;
69769;SDS011;57282;52.514;13.458;2023-02-28T10:03:24;31.63;;;13.20;;
69769;SDS011;57282;52.514;13.458;2023-02-28T10:05:52;34.25;;;14.75;;
69769;SDS011;57282;52.514;13.458;2023-02-28T10:08:21;26.45;;;12.65;;
69769;SDS011;57282;52.514;13.458;2023-02-28T10:10:52;24.73;;;10.95;;
69769;SDS011;57282;52.514;13.458;2023-02-28T10:13:22;29.20;;;12.63;;
69769;SDS011;57282;52.514;13.458;2023-02-28T10:15:51;31.88;;;12.30;;
69769;SDS011;57282;52.514;13.458;2023-02-28T10:18:20;30.35;;;12.30;;
69769;SDS011;57282;52.514;13.458;2023-02-28T10:20:47;29.33;;;13.07;;
69769;SDS011;57282;52.514;13.458;2023-02-28T10:23:16;31.10;;;13.68;;
69769;SDS011;57282;52.514;13.458;2023-02-28T10:25:46;29.00;;;13.60;;
69769;SDS011;57282;52.514;13.458;2023-02-28T10:28:16;29.70;;;13.15;;
69769;SDS011;57282;52.514;13.458;2023-02-28T10:30:44;29.20;;;13.45;;
69769;SDS011;57282;52.514;13.458;2023-02-28T10:33:16;33.72;;;14.10;;
69769;SDS011;57282;52.514;13.458;2023-02-28T10:35:44;29.70;;;13.25;;
69769;SDS011;57282;52.514;13.458;2023-02-28T10:38:12;28.93;;;13.10;;
69769;SDS011;57282;52.514;13.458;2023-02-28T10:40:40;29.42;;;14.10;;
69769;SDS011;57282;52.514;13.458;2023-02-28T10:43:16;30.80;;;13.90;;
69769;SDS011;57282;52.514;13.458;2023-02-28T10:45:52;29.08;;;13.70;;
69769;SDS011;57282;52.514;13.458;2023-02-28T10:48:30;30.02;;;13.60;;
69769;SDS011;57282;52.514;13.458;2023-02-28T10:50:56;28.23;;;13.00;;
69769;SDS011;57282;52.514;13.458;2023-02-28T10:53:31;36.17;;;13.57;;
69769;SDS011;57282;52.514;13.458;2023-02-28T10:55:59;33.33;;;14.10;;
69769;SDS011;57282;52.514;13.458;2023-02-28T10:58:27;27.92;;;12.98;;
69769;SDS011;57282;52.514;13.458;2023-02-28T11:00:56;27.90;;;13.57;;
69769;SDS011;57282;52.514;13.458;2023-02-28T11:03:24;32.67;;;14.67;;
69769;SDS011;57282;52.514;13.458;2023-02-28T11:05:51;26.08;;;13.05;;
69769;SDS011;57282;52.514;13.458;2023-02-28T11:08:18;29.35;;;13.95;;
69769;SDS011;57282;52.514;13.458;2023-02-28T11:10:44;28.40;;;13.18;;
69769;SDS011;57282;52.514;13.458;2023-02-28T11:13:15;29.77;;;13.40;;
69769;SDS011;57282;52.514;13.458;2023-02-28T11:15:43;29.13;;;13.10;;
69769;SDS011;57282;52.514;13.458;2023-02-28T11:18:23;27.98;;;13.82;;
69769;SDS011;57282;52.514;13.458;2023-02-28T11:20:50;29.10;;;12.60;;
69769;SDS011;57282;52.514;13.458;2023-02-28T11:23:17;27.05;;;13.90;;
69769;SDS011;57282;52.514;13.458;2023-02-28T11:25:46;31.58;;;14.18;;
69769;SDS011;57282;52.514;13.458;2023-02-28T11:28:23;28.00;;;13.00;;
69769;SDS011;57282;52.514;13.458;2023-02-28T11:30:59;28.00;;;13.18;;
69769;SDS011;57282;52.514;13.458;2023-02-28T11:33:28;27.17;;;13.30;;
69769;SDS011;57282;52.514;13.458;2023-02-28T11:35:55;29.33;;;13.77;;
69769;SDS011;57282;52.514;13.458;2023-02-28T11:38:25;26.58;;;13.13;;
69769;SDS011;57282;52.514;13.458;2023-02-28T11:40:55;27.57;;;12.97;;
69769;SDS011;57282;52.514;13.458;2023-02-28T11:43:27;26.90;;;13.15;;
69769;SDS011;57282;52.514;13.458;2023-02-28T11:46:01;28.70;;;12.90;;
69769;SDS011;57282;52.514;13.458;2023-02-28T11:48:33;31.13;;;13.70;;
69769;SDS011;57282;52.514;13.458;2023-02-28T11:51:08;29.35;;;14.25;;
69769;SDS011;57282;52.514;13.458;2023-02-28T11:56:29;33.58;;;14.45;;
69769;SDS011;57282;52.514;13.458;2023-02-28T11:59:01;30.60;;;14.35;;
69769;SDS011;57282;52.514;13.458;2023-02-28T12:04:21;34.50;;;15.30;;
69769;SDS011;57282;52.514;13.458;2023-02-28T12:06:52;34.87;;;15.80;;
69769;SDS011;57282;52.514;13.458;2023-02-28T12:09:31;34.65;;;15.60;;
69769;SDS011;57282;52.514;13.458;2023-02-28T12:12:02;36.85;;;15.82;;
69769;SDS011;57282;52.514;13.458;2023-02-28T12:14:47;36.60;;;16.55;;
69769;SDS011;57282;52.514;13.458;2023-02-28T12:17:18;40.13;;;16.33;;
69769;SDS011;57282;52.514;13.458;2023-02-28T12:19:48;37.70;;;16.63;;
69769;SDS011;57282;52.514;13.458;2023-02-28T12:22:30;36.47;;;16.73;;
69769;SDS011;57282;52.514;13.458;2023-02-28T12:27:41;41.00;;;18.73;;
69769;SDS011;57282;52.514;13.458;2023-02-28T12:30:13;41.13;;;18.50;;
69769;SDS011;57282;52.514;13.458;2023-02-28T12:32:41;42.13;;;18.03;;
69769;SDS011;57282;52.514;13.458;2023-02-28T12:35:12;41.42;;;16.98;;
69769;SDS011;57282;52.514;13.458;2023-02-28T12:37:41;40.00;;;17.90;;
69769;SDS011;57282;52.514;13.458;2023-02-28T12:40:10;40.55;;;17.80;;
69769;SDS011;57282;52.514;13.458;2023-02-28T12:42:38;38.63;;;17.73;;
69769;SDS011;57282;52.514;13.458;2023-02-28T12:45:08;41.47;;;17.83;;
69769;SDS011;57282;52.514;13.458;2023-02-28T12:47:37;39.90;;;17.35;;
69769;SDS011;57282;52.514;13.458;2023-02-28T12:50:05;38.53;;;17.20;;
69769;SDS011;57282;52.514;13.458;2023-02-28T12:52:37;40.65;;;17.08;;
69769;SDS011;57282;52.514;13.458;2023-02-28T12:55:06;38.78;;;17.40;;
69769;SDS011;57282;52.514;13.458;2023-02-28T12:57:38;35.10;;;17.43;;
69769;SDS011;57282;52.514;13.458;2023-02-28T13:00:10;38.55;;;17.58;;
69769;SDS011;57282;52.514;13.458;2023-02-28T13:02:49;39.50;;;17.83;;
69769;SDS011;57282;52.514;13.458;2023-02-28T13:05:24;34.08;;;16.10;;
69769;SDS011;57282;52.514;13.458;2023-02-28T13:08:03;37.85;;;17.15;;
69769;SDS011;57282;52.514;13.458;2023-02-28T13:10:38;36.97;;;16.53;;
69769;SDS011;57282;52.514;13.458;2023-02-28T13:13:05;37.22;;;16.55;;
69769;SDS011;57282;52.514;13.458;2023-02-28T13:15:31;35.28;;;16.13;;
69769;SDS011;57282;52.514;13.458;2023-02-28T13:18:03;34.83;;;16.38;;
69769;SDS011;57282;52.514;13.458;2023-02-28T13:20:31;35.60;;;16.45;;
69769;SDS011;57282;52.514;13.458;2023-02-28T13:22:59;34.13;;;16.00;;
69769;SDS011;57282;52.514;13.458;2023-02-28T13:31:16;34.15;;;14.95;;
69769;SDS011;57282;52.514;13.458;2023-02-28T13:36:26;29.47;;;14.53;;
69769;SDS011;57282;52.514;13.458;2023-02-28T13:38:55;30.83;;;14.55;;
69769;SDS011;57282;52.514;13.458;2023-02-28T13:41:41;31.85;;;14.10;;
69769;SDS011;57282;52.514;13.458;2023-02-28T13:44:08;30.67;;;13.52;;
69769;SDS011;57282;52.514;13.458;2023-02-28T13:47:13;29.55;;;13.25;;
69769;SDS011;57282;52.514;13.458;2023-02-28T13:49:25;29.97;;;14.00;;
69769;SDS011;57282;52.514;13.458;2023-02-28T13:51:53;29.85;;;14.02;;
69769;SDS011;57282;52.514;13.458;2023-02-28T13:54:25;31.60;;;13.93;;
69769;SDS011;57282;52.514;13.458;2023-02-28T13:56:56;26.05;;;13.80;;
69769;SDS011;57282;52.514;13.458;2023-02-28T13:59:26;30.00;;;13.25;;
69769;SDS011;57282;52.514;13.458;2023-02-28T14:02:03;39.33;;;14.20;;
69769;SDS011;57282;52.514;13.458;2023-02-28T14:04:44;26.92;;;12.82;;
69769;SDS011;57282;52.514;13.458;2023-02-28T14:07:18;26.67;;;12.48;;
69769;SDS011;57282;52.514;13.458;2023-02-28T14:09:54;32.03;;;13.70;;
69769;SDS011;57282;52.514;13.458;2023-02-28T14:15:23;26.07;;;12.17;;
69769;SDS011;57282;52.514;13.458;2023-02-28T14:17:53;33.50;;;12.77;;
69769;SDS011;57282;52.514;13.458;2023-02-28T14:20:21;27.15;;;13.07;;
69769;SDS011;57282;52.514;13.458;2023-02-28T14:22:51;28.83;;;12.88;;
69769;SDS011;57282;52.514;13.458;2023-02-28T14:25:22;26.17;;;12.95;;
69769;SDS011;57282;52.514;13.458;2023-02-28T14:27:53;29.47;;;12.47;;
69769;SDS011;57282;52.514;13.458;2023-02-28T14:30:40;28.13;;;12.07;;
69769;SDS011;57282;52.514;13.458;2023-02-28T14:36:01;24.15;;;11.93;;
69769;SDS011;57282;52.514;13.458;2023-02-28T14:38:29;25.10;;;13.35;;
69769;SDS011;57282;52.514;13.458;2023-02-28T14:40:57;26.30;;;11.87;;
69769;SDS011;57282;52.514;13.458;2023-02-28T14:43:25;25.55;;;11.88;;
69769;SDS011;57282;52.514;13.458;2023-02-28T14:45:53;29.17;;;13.32;;
69769;SDS011;57282;52.514;13.458;2023-02-28T14:48:21;26.77;;;12.25;;
69769;SDS011;57282;52.514;13.458;2023-02-28T14:50:49;25.88;;;12.70;;
69769;SDS011;57282;52.514;13.458;2023-02-28T14:53:18;24.37;;;11.70;;
69769;SDS011;57282;52.514;13.458;2023-02-28T14:55:46;28.23;;;12.90;;
69769;SDS011;57282;52.514;13.458;2023-02-28T14:58:19;26.33;;;13.30;;